createdAt,value
2023-05-12T00:00:00.230Z,13.6
2023-05-12T00:05:00.313Z,13.6
2023-05-12T00:10:00.211Z,13.6
2023-05-12T00:15:00.258Z,13.7
2023-05-12T00:20:00.228Z,13.7
2023-05-12T00:25:00.153Z,13.7
2023-05-12T00:30:00.186Z,13.6
2023-05-12T00:35:00.267Z,13.6
2023-05-12T00:40:00.272Z,13.6
2023-05-12T00:45:00.204Z,13.6
2023-05-12T00:50:00.253Z,13.6
2023-05-12T00:55:00.209Z,13.6
2023-05-12T01:00:00.242Z,13.5
2023-05-12T01:05:00.240Z,13.5
2023-05-12T01:10:00.308Z,13.5
2023-05-12T01:15:00.200Z,13.5
2023-05-12T01:20:00.290Z,13.5
2023-05-12T01:25:00.262Z,13.4
2023-05-12T01:30:00.237Z,13.4
2023-05-12T01:35:00.277Z,13.4
2023-05-12T01:40:00.174Z,13.4
2023-05-12T01:45:00.221Z,13.4
2023-05-12T01:50:00.225Z,13.4
2023-05-12T01:55:00.201Z,13.4
2023-05-12T02:00:00.202Z,13.4
2023-05-12T02:05:00.269Z,13.4
2023-05-12T02:10:00.227Z,13.3
2023-05-12T02:15:00.176Z,13.3
2023-05-12T02:20:00.216Z,13.3
2023-05-12T02:25:00.263Z,13.3
2023-05-12T02:30:00.272Z,13.3
2023-05-12T02:35:00.239Z,13.3
2023-05-12T02:40:00.214Z,13.3
2023-05-12T02:45:00.245Z,13.2
2023-05-12T02:50:00.278Z,13.2
2023-05-12T02:55:00.266Z,13.2
2023-05-12T03:00:00.247Z,13.2
2023-05-12T03:05:00.258Z,13.2
2023-05-12T03:10:00.235Z,13.2
2023-05-12T03:15:00.266Z,13.2
2023-05-12T03:20:00.279Z,13.2
2023-05-12T03:25:00.208Z,13.2
2023-05-12T03:30:00.227Z,13.1
2023-05-12T03:35:00.284Z,13.1
2023-05-12T03:40:00.260Z,13.1
2023-05-12T03:45:00.279Z,13.1
2023-05-12T03:50:00.206Z,13.1
2023-05-12T03:55:00.241Z,13.1
2023-05-12T04:00:00.264Z,13
2023-05-12T04:05:00.238Z,13
2023-05-12T04:10:00.244Z,13
2023-05-12T04:15:00.319Z,13
2023-05-12T04:20:00.196Z,13
2023-05-12T04:25:00.257Z,13
2023-05-12T04:30:00.230Z,13
2023-05-12T04:35:00.231Z,13
2023-05-12T04:40:00.264Z,13
2023-05-12T04:45:00.272Z,13
2023-05-12T04:50:00.249Z,13
2023-05-12T04:55:00.693Z,13
2023-05-12T05:00:00.260Z,13
2023-05-12T05:05:00.290Z,13
2023-05-12T05:10:00.202Z,13
2023-05-12T05:15:00.328Z,13
2023-05-12T05:20:00.400Z,13
2023-05-12T05:25:00.218Z,13
2023-05-12T05:30:00.243Z,13
2023-05-12T05:35:00.273Z,13
2023-05-12T05:40:00.251Z,13
2023-05-12T05:45:00.267Z,13
2023-05-12T05:50:00.251Z,13
2023-05-12T05:55:00.276Z,13.1
2023-05-12T06:00:00.591Z,13.1
2023-05-12T06:05:00.245Z,13.1
2023-05-12T06:10:00.323Z,13.2
2023-05-12T06:15:00.290Z,13.2
2023-05-12T06:20:00.206Z,13.2
2023-05-12T06:25:00.266Z,13.2
2023-05-12T06:30:00.299Z,13.3
2023-05-12T06:35:00.281Z,13.4
2023-05-12T06:40:00.225Z,13.4
2023-05-12T06:45:00.287Z,13.4
2023-05-12T06:50:00.245Z,13.4
2023-05-12T06:55:00.306Z,13.5
2023-05-12T07:00:00.305Z,13.5
2023-05-12T07:05:00.287Z,13.6
2023-05-12T07:10:00.298Z,13.6
2023-05-12T07:15:00.278Z,13.6
2023-05-12T07:20:00.293Z,13.6
2023-05-12T07:25:00.320Z,13.7
2023-05-12T07:30:00.219Z,13.7
2023-05-12T07:35:00.217Z,13.8
2023-05-12T07:40:00.252Z,13.8
2023-05-12T07:45:00.276Z,13.8
2023-05-12T07:50:00.301Z,13.8
2023-05-12T07:55:00.296Z,13.9
2023-05-12T08:00:00.316Z,14
2023-05-12T08:05:00.215Z,14.1
2023-05-12T08:10:00.247Z,14.1
2023-05-12T08:15:00.266Z,14.2
2023-05-12T08:20:00.268Z,14.2
2023-05-12T08:25:00.348Z,14.3
2023-05-12T08:30:00.261Z,14.4
2023-05-12T08:35:00.309Z,14.5
2023-05-12T08:40:00.297Z,14.6
2023-05-12T08:45:00.292Z,14.7
2023-05-12T08:50:00.228Z,14.8
2023-05-12T08:55:01.100Z,14.9
2023-05-12T09:00:00.319Z,15
2023-05-12T09:05:00.254Z,15.1
2023-05-12T09:10:00.192Z,15.2
2023-05-12T09:15:00.251Z,15.3
2023-05-12T09:20:00.256Z,15.4
2023-05-12T09:25:00.335Z,15.4
2023-05-12T09:30:00.498Z,15.6
2023-05-12T09:35:00.230Z,15.7
2023-05-12T09:40:00.252Z,15.8
2023-05-12T09:45:00.278Z,15.8
2023-05-12T09:50:00.258Z,15.9
2023-05-12T09:55:00.276Z,16
2023-05-12T10:00:00.277Z,16.1
2023-05-12T10:05:00.346Z,16.1
2023-05-12T10:10:00.300Z,16.2
2023-05-12T10:15:00.267Z,16.2
2023-05-12T10:20:00.238Z,16.5
2023-05-12T10:25:00.297Z,16.5
2023-05-12T10:30:00.254Z,16.7
2023-05-12T10:35:01.313Z,16.9
2023-05-12T10:40:00.275Z,17
2023-05-12T10:45:00.268Z,17
2023-05-12T10:50:01.244Z,17.1
2023-05-12T10:55:00.257Z,17.2
2023-05-12T11:00:01.060Z,17.3
2023-05-12T11:05:00.456Z,17.4
2023-05-12T11:10:01.536Z,17.5
2023-05-12T11:15:00.245Z,17.6
2023-05-12T11:20:00.234Z,17.6
2023-05-12T11:25:00.293Z,17.8
2023-05-12T11:30:00.299Z,17.9
2023-05-12T11:35:00.314Z,18
2023-05-12T11:40:00.212Z,18.1
2023-05-12T11:45:00.278Z,18.2
2023-05-12T11:50:00.260Z,18.2
2023-05-12T11:55:00.378Z,18.3
2023-05-12T12:00:00.826Z,18.4
2023-05-12T12:05:00.254Z,18.5
2023-05-12T12:10:00.276Z,18.6
2023-05-12T12:15:00.380Z,18.7
2023-05-12T12:20:00.281Z,18.8
2023-05-12T12:25:00.217Z,18.8
2023-05-12T12:30:00.270Z,19
2023-05-12T12:35:00.229Z,19.2
2023-05-12T12:40:00.195Z,19.3
2023-05-12T12:45:00.255Z,19.4
2023-05-12T12:50:00.233Z,19.4
2023-05-12T12:55:00.293Z,19.4
2023-05-12T13:00:00.257Z,19.4
2023-05-12T13:05:00.214Z,19.4
2023-05-12T13:10:00.213Z,19.4
2023-05-12T13:15:00.472Z,19.4
2023-05-12T13:20:00.222Z,19.5
2023-05-12T13:25:00.305Z,19.6
2023-05-12T13:30:00.260Z,19.7
2023-05-12T13:35:00.408Z,19.8
2023-05-12T13:40:00.220Z,19.9
2023-05-12T13:45:00.423Z,19.9
2023-05-12T13:50:00.281Z,19.9
2023-05-12T13:55:00.274Z,20
2023-05-12T14:00:00.271Z,20.2
2023-05-12T14:05:00.389Z,20.3
2023-05-12T14:10:00.307Z,20.5
2023-05-12T14:15:16.015Z,20.8
2023-05-12T14:20:00.318Z,21
2023-05-12T14:25:00.268Z,21.2
2023-05-12T14:30:00.294Z,21.2
2023-05-12T14:35:00.260Z,21.4
2023-05-12T14:40:00.346Z,21.5
2023-05-12T14:45:00.255Z,21.6
2023-05-12T14:50:00.253Z,21.6
2023-05-12T14:55:00.291Z,21.5
2023-05-12T15:00:00.258Z,21.4
2023-05-12T15:05:00.283Z,21.4
2023-05-12T15:10:00.306Z,21.4
2023-05-12T15:15:00.275Z,21.4
2023-05-12T15:20:00.268Z,21.4
2023-05-12T15:25:00.277Z,21.3
2023-05-12T15:30:00.388Z,21.2
2023-05-12T15:35:00.281Z,21
2023-05-12T15:40:00.312Z,20.8
2023-05-12T15:45:00.280Z,20.7
2023-05-12T15:50:00.253Z,20.5
2023-05-12T15:55:00.209Z,20.4
2023-05-12T16:00:00.319Z,20.3
2023-05-12T16:05:00.304Z,20.2
2023-05-12T16:10:00.259Z,20.2
2023-05-12T16:15:00.301Z,20.1
2023-05-12T16:20:00.446Z,20
2023-05-12T16:25:00.302Z,20
2023-05-12T16:30:00.354Z,19.9
2023-05-12T16:35:00.233Z,19.8
2023-05-12T16:40:00.324Z,19.8
2023-05-12T16:45:00.251Z,19.8
2023-05-12T16:50:00.408Z,19.7
2023-05-12T16:55:00.204Z,19.7
2023-05-12T17:00:00.385Z,19.7
2023-05-12T17:05:00.261Z,19.6
2023-05-12T17:10:00.255Z,19.6
2023-05-12T17:15:07.382Z,19.6
2023-05-12T17:20:00.435Z,19.6
2023-05-12T17:25:00.242Z,19.5
2023-05-12T17:30:00.250Z,19.5
2023-05-12T17:35:00.220Z,19.5
2023-05-12T17:40:00.208Z,19.4
2023-05-12T17:45:00.230Z,19.4
2023-05-12T17:50:00.268Z,19.4
2023-05-12T17:55:00.315Z,19.3
2023-05-12T18:00:00.304Z,19.3
2023-05-12T18:05:00.317Z,19.3
2023-05-12T18:10:00.224Z,19.2
2023-05-12T18:15:00.337Z,19.2
2023-05-12T18:20:00.269Z,19.2
2023-05-12T18:25:00.264Z,19.2
2023-05-12T18:30:00.623Z,19.1
2023-05-12T18:35:00.267Z,19.1
2023-05-12T18:40:00.249Z,19
2023-05-12T18:45:00.359Z,19
2023-05-12T18:50:00.320Z,18.9
2023-05-12T18:55:00.236Z,18.8
2023-05-12T19:00:00.258Z,18.7
2023-05-12T19:05:00.285Z,18.6
2023-05-12T19:10:00.218Z,18.6
2023-05-12T19:15:00.232Z,18.4
2023-05-12T19:20:00.267Z,18.3
2023-05-12T19:25:00.312Z,18.2
2023-05-12T19:30:00.214Z,18.1
2023-05-12T19:35:00.270Z,18
2023-05-12T19:40:00.217Z,17.9
2023-05-12T19:45:00.281Z,17.8
2023-05-12T19:50:00.253Z,17.6
2023-05-12T19:55:00.274Z,17.6
2023-05-12T20:00:00.233Z,17.4
2023-05-12T20:05:00.236Z,17.3
2023-05-12T20:10:00.261Z,17.2
2023-05-12T20:15:00.278Z,17.2
2023-05-12T20:20:00.237Z,17.1
2023-05-12T20:25:00.302Z,17
2023-05-12T20:30:00.242Z,16.9
2023-05-12T20:35:00.425Z,16.8
2023-05-12T20:40:00.314Z,16.8
2023-05-12T20:45:00.242Z,16.6
2023-05-12T20:50:00.353Z,16.6
2023-05-12T20:55:00.309Z,16.4
2023-05-12T21:00:00.291Z,16.4
2023-05-12T21:05:00.247Z,16.3
2023-05-12T21:10:00.552Z,16.2
2023-05-12T21:15:00.270Z,16.1
2023-05-12T21:20:00.221Z,16
2023-05-12T21:25:00.202Z,15.9
2023-05-12T21:30:00.233Z,15.8
2023-05-12T21:35:00.237Z,15.8
2023-05-12T21:40:00.258Z,15.7
2023-05-12T21:45:00.265Z,15.7
2023-05-12T21:50:00.176Z,15.7
2023-05-12T21:55:00.226Z,15.6
2023-05-12T22:00:00.197Z,15.6
2023-05-12T22:05:00.285Z,15.6
2023-05-12T22:10:00.227Z,15.5
2023-05-12T22:15:00.173Z,15.5
2023-05-12T22:20:00.239Z,15.5
2023-05-12T22:25:00.248Z,15.4
2023-05-12T22:30:00.228Z,15.4
2023-05-12T22:35:00.223Z,15.4
2023-05-12T22:40:00.193Z,15.3
2023-05-12T22:45:00.252Z,15.3
2023-05-12T22:50:00.292Z,15.2
2023-05-12T22:55:00.209Z,15.1
2023-05-12T23:00:00.200Z,15
2023-05-12T23:05:00.302Z,14.9
2023-05-12T23:10:00.286Z,14.8
2023-05-12T23:15:00.269Z,14.7
2023-05-12T23:20:00.230Z,14.6
2023-05-12T23:25:00.162Z,14.5
2023-05-12T23:30:00.186Z,14.4
2023-05-12T23:35:00.271Z,14.3
2023-05-12T23:40:00.253Z,14.3
2023-05-12T23:45:00.245Z,14.2
2023-05-12T23:50:00.399Z,14.1
2023-05-12T23:55:00.298Z,14
